Terminal Aerodrome Forecast
Issued by NWS Twin Cities, MN

Home | Current Version | Previous Version | Text Only | Print | Product List | Glossary Off
Versions: 1 2 3 4 5 6 7 8 9 10 11 12 13 14 15 16 17 18 19 20 21 22 23 24 25 26 27 28 29 30 31 32 33 34 35 36 37

000
FTUS43 KMPX 310000 AAA
TAFMSP
TAF AMD
KMSP 310020Z 3100/0106 08005KT P6SM BKN035 BKN070
      TEMPO 3100/3102 5SM -SHRA BKN030 BKN070
     FM310300 12004KT P6SM SCT025 BKN050
     FM311000 13005KT P6SM SCT025 BKN200
     FM311700 16015G22KT P6SM SCT040 BKN090
     FM312300 17014G22KT P6SM VCTS SCT040CB BKN070
      TEMPO 3123/0103 4SM TSRA BKN030CB OVC070=

USA.gov is the U.S. government's official web portal to all federal, state and local government web resources and services.